Time;durP1;ratioP1;P1;durP2;ratioP2;P2;SDS_P1;SDS_P2;PMS_P1;PMS_P2;Temp;Humidity;BMP_temperature;BMP_pressure;BME280_temperature;BME280_humidity;BME280_pressure;Samples;Min_cycle;Max_cycle;Signal;HPM_P1;HPM_P2
2022/06/18 00:01:20;;;;;;;;;11.67;10.00;;;;;28.70;37.19;101496.25;4973958;28;45492;-89
2022/06/18 00:03:45;;;;;;;;;11.67;11.67;;;;;28.74;36.51;101486.69;4974080;28;45493;-88
2022/06/18 00:06:11;;;;;;;;;11.00;10.33;;;;;28.74;37.37;101482.03;4990969;23;46181;-89
2022/06/18 00:08:37;;;;;;;;;10.67;9.67;;;;;28.97;36.23;101515.19;4999432;28;45376;-88
2022/06/18 00:13:54;;;;;;;;;12.00;12.00;;;;;28.49;36.62;101439.13;4998376;28;45475;-89
2022/06/18 00:16:21;;;;;;;;;11.33;11.00;;;;;29.24;36.54;101566.25;5001083;28;46119;-89
2022/06/18 00:18:47;;;;;;;;;10.33;10.33;;;;;29.24;36.19;101562.59;4995399;28;45942;-87
2022/06/18 00:21:17;;;;;;;;;12.67;11.67;;;;;28.73;36.21;101480.34;4996185;28;45944;-89
2022/06/18 00:23:42;;;;;;;;;10.33;10.33;;;;;28.78;35.87;101493.56;4987004;23;45548;-89
2022/06/18 00:26:23;;;;;;;;;9.33;9.33;;;;;28.48;36.02;101438.25;4970611;28;45605;-89
2022/06/18 00:28:49;;;;;;;;;12.33;11.33;;;;;28.71;36.32;101487.88;4971304;28;45512;-89
2022/06/18 00:31:14;;;;;;;;;12.33;11.67;;;;;29.20;36.30;101553.00;4972936;28;45845;-88
2022/06/18 00:33:40;;;;;;;;;11.00;10.67;;;;;28.69;36.31;101470.72;4975191;28;46963;-88
2022/06/18 00:36:13;;;;;;;;;11.00;10.00;;;;;28.94;36.56;101501.81;4972267;28;45626;-89
2022/06/18 00:38:42;;;;;;;;;11.00;11.00;;;;;29.19;36.06;101548.53;4973978;28;45816;-88
2022/06/18 00:41:14;;;;;;;;;10.33;10.00;;;;;29.09;36.06;101539.63;4975882;28;45506;-88
2022/06/18 00:43:54;;;;;;;;;11.00;11.00;;;;;29.09;35.54;101537.72;4976406;28;46214;-88
2022/06/18 00:46:42;;;;;;;;;9.33;9.33;;;;;29.25;35.57;101561.59;4970294;28;46312;-88
2022/06/18 00:52:41;;;;;;;;;8.33;7.00;;;;;29.20;35.80;101555.75;4978242;28;45537;-89
2022/06/18 00:55:36;;;;;;;;;8.33;7.33;;;;;29.17;35.54;101561.56;4977700;28;45460;-88
2022/06/18 00:58:07;;;;;;;;;8.00;8.00;;;;;29.15;35.83;101564.50;4976520;28;47039;-88
2022/06/18 01:00:47;;;;;;;;;9.00;9.00;;;;;29.03;35.43;101549.31;4978475;28;45758;-88
2022/06/18 01:03:24;;;;;;;;;7.67;7.67;;;;;28.86;35.35;101520.16;4978287;28;45433;-88
2022/06/18 01:05:51;;;;;;;;;10.00;9.00;;;;;29.10;35.22;101555.03;4974659;28;45558;-88
2022/06/18 01:08:19;;;;;;;;;9.67;9.67;;;;;28.89;35.74;101530.78;4977251;28;47209;-89
2022/06/18 01:10:51;;;;;;;;;10.67;10.33;;;;;29.07;35.54;101566.34;4984575;28;45401;-88
2022/06/18 01:13:20;;;;;;;;;8.00;8.00;;;;;29.03;35.63;101565.78;4976221;28;45372;-88
2022/06/18 01:15:46;;;;;;;;;7.00;7.00;;;;;28.98;35.78;101555.31;4984892;28;45579;-88
2022/06/18 01:18:13;;;;;;;;;9.00;9.00;;;;;28.69;35.68;101509.13;4979769;28;46588;-88
2022/06/18 01:20:46;;;;;;;;;9.33;9.33;;;;;28.99;35.82;101559.81;4972679;28;45812;-89
2022/06/18 01:23:27;;;;;;;;;5.33;5.33;;;;;28.94;35.67;101553.97;4973892;28;45463;-88
2022/06/18 01:25:56;;;;;;;;;10.00;8.67;;;;;28.77;35.91;101532.97;4974067;28;45504;-88
2022/06/18 01:28:27;;;;;;;;;12.00;8.33;;;;;28.89;35.68;101550.84;4977657;28;48258;-87
2022/06/18 01:33:31;;;;;;;;;8.00;8.00;;;;;28.61;36.21;101482.53;5189265;23;45440;-89
2022/06/18 01:35:56;;;;;;;;;8.00;7.00;;;;;28.46;35.89;101458.63;4995917;28;45534;-87
2022/06/18 01:38:24;;;;;;;;;10.67;9.00;;;;;28.44;35.74;101457.94;4993898;28;46414;-87
2022/06/18 01:41:49;;;;;;;;;9.67;8.33;;;;;28.70;35.99;101493.50;4995542;28;45686;-89
2022/06/18 01:43:44;;;;;;;;;10.67;10.33;;;;;28.66;35.94;101476.56;4995726;28;45475;-88
2022/06/18 01:46:09;;;;;;;;;10.00;7.00;;;;;28.87;36.80;101513.63;4995089;28;45332;-88
2022/06/18 01:48:40;;;;;;;;;9.00;8.00;;;;;28.30;36.79;101432.84;4994931;28;47082;-88
2022/06/18 01:51:12;;;;;;;;;10.67;8.33;;;;;28.40;36.38;101446.41;4994028;28;45389;-88
2022/06/18 01:53:45;;;;;;;;;7.67;7.67;;;;;28.62;36.29;101481.50;4993485;28;45407;-88
2022/06/18 01:56:33;;;;;;;;;9.67;9.67;;;;;28.91;36.45;101529.56;4998811;28;47493;-88
2022/06/18 01:59:04;;;;;;;;;8.33;8.33;;;;;28.20;36.68;101418.44;4991127;28;47206;-86
2022/06/18 02:01:38;;;;;;;;;8.67;8.67;;;;;28.89;36.70;101537.13;4996563;28;47151;-87
2022/06/18 02:04:04;;;;;;;;;8.67;8.00;;;;;28.15;36.34;101416.19;4992013;28;45591;-88
2022/06/18 02:06:32;;;;;;;;;13.33;10.00;;;;;28.59;36.57;101484.59;4993249;28;45621;-87
2022/06/18 02:09:01;;;;;;;;;8.67;8.67;;;;;28.50;36.60;101473.75;4993831;28;47196;-88
2022/06/18 02:11:26;;;;;;;;;8.00;8.00;;;;;28.40;37.37;101457.38;4992659;28;45473;-87
2022/06/18 02:14:01;;;;;;;;;12.33;11.00;;;;;28.11;36.54;101413.94;5010705;22;45591;-88
2022/06/18 02:16:30;;;;;;;;;10.67;10.33;;;;;28.38;36.81;101465.81;4995908;28;45502;-88
2022/06/18 02:19:02;;;;;;;;;9.33;9.00;;;;;28.68;36.97;101509.28;4992241;28;45815;-87
2022/06/18 02:21:27;;;;;;;;;8.67;7.00;;;;;28.08;37.79;101414.28;5000611;22;45274;-87
2022/06/18 02:27:16;;;;;;;;;9.67;9.67;;;;;28.48;37.67;101490.38;5002302;23;45439;-87
2022/06/18 02:29:44;;;;;;;;;11.00;11.00;;;;;28.66;37.87;101528.69;4991739;28;47718;-88
2022/06/18 02:32:46;;;;;;;;;12.33;11.67;;;;;28.63;38.17;101520.75;4988689;28;45625;-89
2022/06/18 02:37:37;;;;;;;;;10.33;10.00;;;;;28.56;38.09;101511.47;5023130;22;58283;-88
2022/06/18 02:40:03;;;;;;;;;10.00;10.00;;;;;28.51;38.12;101509.22;5015818;28;46305;-90
2022/06/18 02:42:32;;;;;;;;;11.33;11.00;;;;;28.45;38.13;101489.81;5014512;28;45336;-89
2022/06/18 02:45:01;;;;;;;;;11.33;10.67;;;;;28.25;38.01;101464.56;5012171;28;45602;-88
2022/06/18 02:47:26;;;;;;;;;9.00;9.00;;;;;28.22;38.00;101462.16;5018055;28;45492;-88
2022/06/18 02:49:57;;;;;;;;;10.00;10.00;;;;;28.23;38.29;101466.59;5013209;28;46100;-87
2022/06/18 02:52:27;;;;;;;;;11.00;10.00;;;;;28.24;37.88;101463.69;5012017;28;45589;-89
2022/06/18 02:55:10;;;;;;;;;10.33;9.00;;;;;28.22;38.58;101459.41;5013961;28;45598;-88
2022/06/18 02:57:37;;;;;;;;;9.00;9.00;;;;;28.39;38.54;101477.63;5009438;28;46533;-88
2022/06/18 03:00:15;;;;;;;;;10.67;10.67;;;;;28.37;38.67;101475.03;5013279;28;46946;-88
2022/06/18 03:02:41;;;;;;;;;11.00;11.00;;;;;28.35;38.95;101468.00;5012763;28;45434;-86
2022/06/18 03:05:08;;;;;;;;;9.33;9.33;;;;;28.34;38.48;101471.78;5012377;28;45575;-90
2022/06/18 03:07:33;;;;;;;;;10.00;8.67;;;;;28.32;38.42;101465.59;5013947;28;45624;-87
2022/06/18 03:12:43;;;;;;;;;11.00;11.00;;;;;28.26;38.91;101450.69;5011727;28;45491;-89
2022/06/18 03:15:30;;;;;;;;;12.67;10.00;;;;;27.76;38.70;101378.31;5011655;28;45531;-88
2022/06/18 03:17:56;;;;;;;;;8.33;8.33;;;;;28.19;38.91;101450.50;5013726;28;45543;-88
2022/06/18 03:22:47;;;;;;;;;9.67;9.67;;;;;27.92;39.36;101399.50;5092990;22;71592;-87
2022/06/18 03:25:12;;;;;;;;;8.00;8.00;;;;;28.02;39.00;101418.53;5014310;28;45874;-89
2022/06/18 03:27:38;;;;;;;;;9.67;9.67;;;;;27.96;39.17;101409.09;5150623;22;45851;-89
2022/06/18 03:30:04;;;;;;;;;11.00;11.00;;;;;28.06;39.69;101424.56;5011119;28;47988;-88
2022/06/18 03:32:31;;;;;;;;;9.33;9.33;;;;;27.89;39.17;101413.53;5014002;28;45447;-88
2022/06/18 03:34:56;;;;;;;;;11.00;11.00;;;;;27.41;39.22;101327.31;4995317;28;45500;-88
2022/06/18 03:37:22;;;;;;;;;10.00;9.33;;;;;28.04;38.41;101435.69;5012935;28;45835;-88
2022/06/18 03:39:47;;;;;;;;;12.67;10.33;;;;;27.99;38.51;101424.34;5012320;28;45733;-88
2022/06/18 03:42:13;;;;;;;;;9.33;9.33;;;;;27.99;39.24;101422.47;5011227;28;45548;-88
2022/06/18 03:44:38;;;;;;;;;10.00;10.00;;;;;27.99;39.19;101427.09;5010555;28;45472;-88
2022/06/18 03:47:04;;;;;;;;;9.67;8.00;;;;;27.96;39.37;101433.78;5011068;28;45519;-87
2022/06/18 03:49:32;;;;;;;;;9.67;9.67;;;;;27.82;39.01;101403.38;5011074;28;45924;-87
2022/06/18 03:51:59;;;;;;;;;11.67;11.67;;;;;27.92;39.42;101423.31;5009215;28;45581;-87
2022/06/18 03:54:25;;;;;;;;;8.00;8.00;;;;;27.74;39.15;101399.53;5009882;28;46205;-88
2022/06/18 03:56:51;;;;;;;;;10.00;9.00;;;;;27.89;39.53;101429.13;5011422;28;45553;-88
2022/06/18 03:59:16;;;;;;;;;11.00;10.00;;;;;27.87;39.50;101426.53;5012252;28;46128;-89
2022/06/18 04:01:41;;;;;;;;;9.33;7.33;;;;;27.68;39.90;101394.72;5011383;28;45621;-88
2022/06/18 04:04:08;;;;;;;;;11.00;9.33;;;;;27.67;39.30;101400.34;5008243;28;48597;-87
2022/06/18 04:06:34;;;;;;;;;7.33;7.33;;;;;27.84;39.45;101418.66;5014730;28;45567;-88
2022/06/18 04:09:00;;;;;;;;;10.00;9.33;;;;;27.76;39.90;101411.19;5012992;28;45520;-87
2022/06/18 04:11:25;;;;;;;;;6.67;6.67;;;;;27.84;39.72;101421.38;5011431;28;45531;-87
2022/06/18 04:13:51;;;;;;;;;9.00;9.00;;;;;27.83;39.63;101418.75;5007440;28;45736;-88
2022/06/18 04:16:16;;;;;;;;;8.33;8.33;;;;;27.81;38.92;101416.19;5011665;28;45476;-89
2022/06/18 04:18:43;;;;;;;;;8.33;8.33;;;;;27.78;38.82;101414.63;5011971;28;46669;-88
2022/06/18 04:21:08;;;;;;;;;8.67;7.33;;;;;27.78;38.92;101413.78;5010208;28;47566;-87
2022/06/18 04:23:34;;;;;;;;;9.33;9.33;;;;;27.78;38.95;101417.38;5011594;28;45397;-89
2022/06/18 04:25:59;;;;;;;;;7.67;7.67;;;;;27.76;38.62;101410.34;5010906;28;45756;-87
2022/06/18 04:28:25;;;;;;;;;8.33;8.33;;;;;27.75;38.77;101414.13;5009149;28;49755;-87
2022/06/18 04:30:51;;;;;;;;;7.33;7.33;;;;;27.76;38.49;101415.81;5012847;28;45564;-87
2022/06/18 04:35:53;;;;;;;;;8.00;7.00;;;;;27.69;38.33;101385.47;5178535;23;45678;-85
2022/06/18 04:38:20;;;;;;;;;10.33;9.33;;;;;27.87;38.26;101418.31;4990725;28;46239;-88
2022/06/18 04:40:45;;;;;;;;;6.67;6.67;;;;;27.65;37.94;101375.00;4991056;28;45457;-87
2022/06/18 04:43:11;;;;;;;;;7.00;7.00;;;;;27.92;38.36;101423.31;4990627;28;45709;-87
2022/06/18 04:45:37;;;;;;;;;8.33;8.33;;;;;27.94;38.07;101426.75;4991650;28;46948;-88
2022/06/18 04:48:04;;;;;;;;;8.67;7.67;;;;;27.83;38.83;101405.06;4991802;28;46485;-87
2022/06/18 04:50:33;;;;;;;;;8.00;8.00;;;;;27.79;39.00;101401.78;4993478;28;46579;-87
2022/06/18 04:52:58;;;;;;;;;8.33;8.00;;;;;27.65;38.84;101378.63;4987528;28;45429;-87
2022/06/18 04:55:24;;;;;;;;;9.67;9.33;;;;;27.59;39.39;101373.78;4991053;28;45561;-87
2022/06/18 04:57:49;;;;;;;;;10.67;9.00;;;;;27.70;39.53;101389.09;4993523;28;46318;-87
2022/06/18 05:00:16;;;;;;;;;8.33;8.00;;;;;27.94;39.79;101422.09;4992078;28;45469;-87
2022/06/18 05:02:42;;;;;;;;;12.00;10.67;;;;;27.94;39.59;101430.31;4993802;28;45893;-88
2022/06/18 05:05:12;;;;;;;;;10.00;10.00;;;;;27.93;39.76;101422.25;4991929;28;45456;-87
2022/06/18 05:07:38;;;;;;;;;9.33;9.33;;;;;27.92;39.69;101420.56;4990625;28;46202;-87
2022/06/18 05:10:05;;;;;;;;;12.00;11.00;;;;;27.90;39.39;101426.19;4993840;28;45553;-88
2022/06/18 05:12:30;;;;;;;;;13.00;11.00;;;;;27.65;39.78;101378.63;4995366;28;45496;-87
2022/06/18 05:14:56;;;;;;;;;10.67;10.67;;;;;27.55;39.70;101358.69;4993914;28;45566;-87
2022/06/18 05:17:26;;;;;;;;;10.50;10.50;;;;;27.73;40.20;101391.50;4998298;28;45539;-87
2022/06/18 05:19:51;;;;;;;;;9.67;9.00;;;;;27.39;40.33;101339.44;4997039;28;45481;-87
2022/06/18 05:22:17;;;;;;;;;13.33;11.33;;;;;27.93;40.04;101414.94;4998323;28;45429;-86
2022/06/18 05:24:42;;;;;;;;;11.67;10.67;;;;;27.64;40.80;101354.13;4996858;28;45570;-87
2022/06/18 05:27:34;;;;;;;;;9.00;9.00;;;;;27.62;40.53;101332.38;5000056;28;46336;-88
2022/06/18 05:30:00;;;;;;;;;14.00;10.67;;;;;28.08;40.15;101414.28;4996504;28;45476;-88
2022/06/18 05:32:25;;;;;;;;;11.33;10.67;;;;;27.57;40.24;101319.16;4992134;28;45511;-86
2022/06/18 05:34:51;;;;;;;;;11.33;10.00;;;;;28.12;41.12;101412.91;4994380;28;45691;-88
2022/06/18 05:37:21;;;;;;;;;12.00;12.00;;;;;28.12;40.81;101405.56;4995081;28;46240;-89
2022/06/18 05:39:46;;;;;;;;;12.00;12.00;;;;;27.97;41.09;101360.63;4996533;28;45453;-89
2022/06/18 05:42:12;;;;;;;;;12.33;10.33;;;;;27.53;40.70;101290.44;4993582;28;45345;-89
2022/06/18 05:44:39;;;;;;;;;11.00;11.00;;;;;27.55;41.10;101288.34;4993203;28;45391;-88
2022/06/18 05:47:15;;;;;;;;;11.00;9.67;;;;;28.24;41.04;101392.41;4992641;28;46235;-87
2022/06/18 05:49:41;;;;;;;;;13.00;12.00;;;;;28.19;40.99;101379.22;4991831;28;45560;-90
2022/06/18 05:52:07;;;;;;;;;10.00;9.33;;;;;28.22;40.76;101378.00;4993592;28;45644;-89
2022/06/18 05:54:33;;;;;;;;;12.00;10.00;;;;;28.07;40.69;101363.22;4997081;28;45529;-89
2022/06/18 05:56:59;;;;;;;;;10.00;8.33;;;;;28.25;39.97;101385.03;4990219;28;46020;-88
2022/06/18 05:59:24;;;;;;;;;9.33;9.33;;;;;28.27;40.63;101378.38;4991423;28;45646;-89
2022/06/18 06:01:49;;;;;;;;;6.33;6.33;;;;;28.18;39.19;101350.06;4993607;28;45551;-88
2022/06/18 06:04:19;;;;;;;;;10.00;8.00;;;;;28.34;38.51;101379.41;4990564;28;45331;-89
2022/06/18 06:06:45;;;;;;;;;12.00;8.67;;;;;28.22;38.50;101353.34;4996452;28;46537;-89
2022/06/18 06:12:11;;;;;;;;;7.67;7.67;;;;;28.28;37.94;101349.06;4993727;28;45453;-89
2022/06/18 06:14:39;;;;;;;;;8.00;8.00;;;;;28.38;37.89;101355.25;4994250;28;45763;-90
2022/06/18 06:17:23;;;;;;;;;6.00;5.33;;;;;28.09;37.57;101298.13;4980245;28;48357;-89
2022/06/18 06:19:48;;;;;;;;;8.00;8.00;;;;;28.16;38.05;101308.25;4993498;28;45521;-88
2022/06/18 06:22:14;;;;;;;;;7.67;7.67;;;;;28.41;37.54;101347.53;4992361;28;45547;-86
2022/06/18 06:24:39;;;;;;;;;6.33;6.33;;;;;27.96;37.16;101269.34;4997641;28;46112;-88
2022/06/18 06:27:05;;;;;;;;;8.00;8.00;;;;;28.61;37.22;101370.06;4990678;28;46122;-86
2022/06/18 06:29:31;;;;;;;;;5.33;5.33;;;;;28.65;36.90;101375.19;4995242;28;45482;-87
2022/06/18 06:31:56;;;;;;;;;8.00;6.00;;;;;28.67;36.82;101371.25;4990066;28;45586;-88
2022/06/18 06:34:22;;;;;;;;;8.00;8.00;;;;;28.59;36.83;101352.91;4991507;28;45590;-88
2022/06/18 06:36:47;;;;;;;;;6.00;6.00;;;;;28.64;36.06;101362.53;4992791;28;46127;-88
2022/06/18 06:39:12;;;;;;;;;7.33;6.33;;;;;28.73;35.87;101375.19;4977469;28;45523;-88
2022/06/18 06:41:38;;;;;;;;;9.00;8.67;;;;;28.78;36.52;101372.81;4982697;28;45454;-88
2022/06/18 06:44:03;;;;;;;;;6.00;6.00;;;;;28.83;35.86;101373.16;4993967;28;45474;-88
2022/06/18 06:46:29;;;;;;;;;7.00;7.00;;;;;28.74;36.47;101358.56;4992760;28;45681;-88
2022/06/18 06:54:29;;;;;;;;;8.67;8.00;;;;;28.68;35.70;101319.97;4975372;28;48398;-90
2022/06/18 06:59:38;;;;;;;;;8.67;7.67;;;;;28.89;36.54;101350.50;4975684;28;45571;-86
2022/06/18 07:02:13;;;;;;;;;7.00;5.67;;;;;29.16;36.47;101381.41;4983529;28;45678;-91
2022/06/18 07:04:39;;;;;;;;;9.67;9.67;;;;;29.12;36.34;101360.81;5002416;28;44849;-96
2022/06/18 07:07:04;;;;;;;;;10.33;8.00;;;;;29.17;36.95;101367.50;4985146;28;47048;-94
2022/06/18 07:09:29;;;;;;;;;8.67;8.67;;;;;29.28;37.64;101380.00;4979639;28;45483;-96
2022/06/18 07:11:55;;;;;;;;;9.67;9.67;;;;;29.18;36.91;101363.72;4993775;28;55738;-93
2022/06/18 07:14:20;;;;;;;;;13.00;10.00;;;;;29.31;36.59;101376.06;4973902;28;45389;-93
2022/06/18 07:16:53;;;;;;;;;9.00;8.33;;;;;29.34;35.58;101372.97;4980176;28;45924;-96
2022/06/18 07:21:53;;;;;;;;;10.67;9.33;;;;;29.19;35.65;101337.13;5093574;22;44908;-96
2022/06/18 07:27:42;;;;;;;;;10.33;7.33;;;;;29.57;34.72;101373.94;5037347;22;45764;-88
2022/06/18 07:30:09;;;;;;;;;8.00;8.00;;;;;29.64;34.85;101372.19;5016047;28;45443;-88
2022/06/18 07:32:36;;;;;;;;;9.33;9.33;;;;;29.54;34.97;101341.31;5018355;28;45511;-87
2022/06/18 07:35:06;;;;;;;;;8.00;8.00;;;;;29.56;34.04;101341.13;5014391;28;45552;-89
2022/06/18 07:37:31;;;;;;;;;5.33;4.67;;;;;29.77;33.40;101368.91;5014974;28;46502;-85
2022/06/18 07:39:56;;;;;;;;;9.00;7.33;;;;;29.56;33.95;101332.91;5020076;28;45526;-88
2022/06/18 07:42:24;;;;;;;;;6.67;6.67;;;;;29.70;33.24;101340.44;5018450;28;46240;-86
2022/06/18 07:44:49;;;;;;;;;10.67;10.33;;;;;29.91;33.74;101360.97;5017955;28;45484;-90
2022/06/18 07:47:18;;;;;;;;;8.67;8.67;;;;;29.88;33.20;101340.19;5015705;28;46668;-87
2022/06/18 07:49:45;;;;;;;;;7.67;7.67;;;;;30.05;33.35;101357.44;5010540;28;45602;-85
2022/06/18 07:52:13;;;;;;;;;7.00;7.00;;;;;29.93;33.04;101325.91;5012342;22;45590;-88
2022/06/18 07:54:39;;;;;;;;;9.00;9.00;;;;;30.18;33.24;101356.84;4990451;28;46843;-88
2022/06/18 07:57:04;;;;;;;;;8.00;8.00;;;;;30.25;33.87;101352.31;4991816;28;47173;-89
2022/06/18 07:59:30;;;;;;;;;10.00;8.00;;;;;30.31;32.99;101348.03;4995694;28;45476;-96
2022/06/18 08:01:55;;;;;;;;;9.67;9.67;;;;;30.18;32.63;101313.72;5710496;23;45773;-93
2022/06/18 08:06:49;;;;;;;;;8.67;7.67;;;;;30.27;33.06;101304.41;5000378;22;74034;-88
2022/06/18 08:09:14;;;;;;;;;9.00;9.00;;;;;30.41;32.51;101310.97;4991983;28;45786;-91
2022/06/18 08:11:40;;;;;;;;;8.00;8.00;;;;;30.49;32.82;101310.09;4991299;28;45456;-86
2022/06/18 08:14:06;;;;;;;;;9.00;9.00;;;;;30.70;33.44;101326.75;4991601;28;46092;-84
2022/06/18 08:16:32;;;;;;;;;9.67;9.00;;;;;30.78;32.56;101331.31;4993477;28;46115;-85
2022/06/18 08:18:57;;;;;;;;;9.33;9.00;;;;;30.88;31.95;101323.72;4993578;28;45811;-85
2022/06/18 08:21:28;;;;;;;;;7.67;7.67;;;;;30.78;32.02;101289.19;4994775;28;45688;-87
2022/06/18 08:23:59;;;;;;;;;7.33;7.33;;;;;31.06;31.86;101325.25;4975999;28;45655;-87
2022/06/18 08:26:25;;;;;;;;;90.50;62.75;;;;;31.17;32.19;101321.19;4991373;28;46264;-88
2022/06/18 08:32:03;;;;;;;;;12.00;10.00;;;;;31.50;30.65;101306.00;4989592;28;46869;-88
2022/06/18 08:34:28;;;;;;;;;8.00;8.00;;;;;31.14;30.49;101179.22;4999632;28;45420;-85
2022/06/18 08:36:54;;;;;;;;;12.00;9.00;;;;;32.29;29.46;101310.81;4993446;28;47028;-86
2022/06/18 08:39:19;;;;;;;;;31.33;20.00;;;;;32.45;29.71;101308.81;4996051;28;45508;-86
2022/06/18 08:42:03;;;;;;;;;12.00;10.67;;;;;32.48;29.82;101301.00;5000942;28;45472;-88
2022/06/18 08:44:56;;;;;;;;;10.33;9.00;;;;;32.52;29.39;101295.97;4984482;28;45533;-89
2022/06/18 08:47:29;;;;;;;;;13.00;13.00;;;;;32.45;29.65;101248.97;4993624;28;46465;-89
2022/06/18 08:50:18;;;;;;;;;10.67;9.00;;;;;32.90;28.98;101292.91;4994120;28;45477;-93
2022/06/18 08:52:58;;;;;;;;;12.67;12.67;;;;;32.96;29.07;101275.50;4993209;28;45473;-91
2022/06/18 08:55:42;;;;;;;;;11.00;11.00;;;;;33.11;28.64;101264.41;4988674;28;45885;-91
2022/06/18 08:58:28;;;;;;;;;7.67;7.67;;;;;33.31;28.06;101275.53;5001465;28;46856;-91
2022/06/18 09:01:03;;;;;;;;;9.00;9.00;;;;;33.31;28.32;101239.63;4989936;28;45609;-90
2022/06/18 09:03:50;;;;;;;;;10.33;8.67;;;;;33.81;28.30;101267.91;5001192;28;45481;-92
2022/06/18 09:06:40;;;;;;;;;15.33;12.33;;;;;34.11;26.69;101264.81;5000702;28;45430;-88
2022/06/18 09:09:14;;;;;;;;;10.67;9.00;;;;;34.46;27.50;101257.19;4993169;28;46693;-90
2022/06/18 09:12:09;;;;;;;;;10.33;10.33;;;;;34.61;26.43;101215.50;4995407;28;45476;-89
2022/06/18 09:14:47;;;;;;;;;11.33;10.67;;;;;35.27;25.89;101253.31;4996464;28;46966;-87
2022/06/18 09:17:45;;;;;;;;;12.00;10.33;;;;;35.60;26.34;101252.34;5003730;28;45481;-89
2022/06/18 09:20:25;;;;;;;;;7.00;7.00;;;;;36.02;25.71;101250.00;4969674;28;47274;-88
2022/06/18 09:22:58;;;;;;;;;10.00;9.00;;;;;36.22;25.02;101227.66;5002490;28;45539;-85
2022/06/18 09:25:30;;;;;;;;;12.00;10.00;;;;;36.70;25.05;101244.59;4995013;28;45672;-91
2022/06/18 09:28:01;;;;;;;;;10.00;10.00;;;;;37.05;23.76;101246.78;5000271;28;45625;-89
2022/06/18 09:30:32;;;;;;;;;9.67;9.67;;;;;37.34;24.96;101236.00;4999193;28;46171;-94
2022/06/18 09:33:05;;;;;;;;;23.67;13.00;;;;;37.35;24.20;101185.72;4977957;28;45494;-90
2022/06/18 09:35:52;;;;;;;;;8.67;8.00;;;;;37.84;24.46;101193.19;4995036;28;45830;-88
2022/06/18 09:38:26;;;;;;;;;9.67;9.67;;;;;38.19;22.10;101227.56;4986668;28;45264;-86
2022/06/18 09:41:17;;;;;;;;;7.00;7.00;;;;;38.52;22.85;101226.19;4977747;28;48152;-94
2022/06/18 09:44:10;;;;;;;;;9.00;9.00;;;;;38.89;21.75;101213.94;4916251;28;45555;-93
2022/06/18 09:46:44;;;;;;;;;8.67;8.00;;;;;39.08;20.46;101218.31;4915749;28;45368;-93
2022/06/18 09:49:10;;;;;;;;;8.67;8.33;;;;;39.07;19.80;101188.72;4920044;28;45412;-90
2022/06/18 09:51:42;;;;;;;;;6.67;5.00;;;;;39.21;20.12;101184.56;4926487;28;46034;-93
2022/06/18 09:54:10;;;;;;;;;7.33;6.33;;;;;39.51;19.68;101197.47;4920519;28;45972;-96
2022/06/18 09:56:47;;;;;;;;;8.00;6.00;;;;;39.68;20.34;101195.53;4930452;28;45570;-96
2022/06/18 09:59:45;;;;;;;;;7.67;6.33;;;;;39.90;19.63;101186.50;4924838;28;45818;-94
2022/06/18 10:02:18;;;;;;;;;7.00;7.00;;;;;40.06;19.85;101182.88;5050217;23;46109;-94
2022/06/18 10:07:31;;;;;;;;;6.00;6.00;;;;;40.59;18.50;101185.41;5006378;28;45455;-91
2022/06/18 10:10:05;;;;;;;;;9.00;8.00;;;;;40.76;18.01;101186.22;4997793;28;46106;-86
2022/06/18 10:12:39;;;;;;;;;6.67;5.00;;;;;40.25;17.80;101096.03;4992047;28;47157;-90
2022/06/18 10:15:08;;;;;;;;;6.67;6.67;;;;;40.74;17.19;101162.44;4995656;28;46164;-89
2022/06/18 10:17:49;;;;;;;;;5.00;5.00;;;;;40.91;17.86;101185.63;5004314;28;45515;-89
2022/06/18 10:20:39;;;;;;;;;5.33;5.33;;;;;41.03;17.15;101174.31;4993523;28;45600;-88
2022/06/18 10:23:23;;;;;;;;;7.67;6.00;;;;;41.11;17.14;101174.69;5004237;28;46421;-86
2022/06/18 10:26:34;;;;;;;;;5.33;5.33;;;;;40.22;17.62;101007.16;5005275;28;45448;-95
2022/06/18 10:29:24;;;;;;;;;5.00;5.00;;;;;41.23;17.03;101163.38;4996095;28;45396;-89
2022/06/18 10:32:07;;;;;;;;;5.67;5.67;;;;;40.94;16.59;101137.56;5007830;28;45395;-87
2022/06/18 10:34:46;;;;;;;;;6.67;6.67;;;;;41.16;17.17;101161.88;5006893;28;46740;-92
2022/06/18 10:37:31;;;;;;;;;6.00;6.00;;;;;41.10;17.14;101159.00;4994730;28;45517;-94
2022/06/18 10:40:50;;;;;;;;;8.67;7.00;;;;;41.18;16.98;101146.53;4999048;28;45400;-94
2022/06/18 10:43:34;;;;;;;;;9.67;7.00;;;;;41.08;17.36;101146.41;5007259;28;45558;-93
2022/06/18 10:46:06;;;;;;;;;8.00;7.00;;;;;41.08;17.12;101135.22;5005253;28;45409;-91
2022/06/18 10:48:32;;;;;;;;;9.00;7.67;;;;;41.24;17.55;101137.09;4999033;28;45940;-94
2022/06/18 10:51:00;;;;;;;;;6.67;6.67;;;;;41.39;17.04;101135.56;5005471;28;45483;-89
2022/06/18 10:53:47;;;;;;;;;13.67;8.67;;;;;41.46;17.28;101127.81;5002221;28;45527;-89
2022/06/18 10:56:20;;;;;;;;;7.00;7.00;;;;;41.58;16.64;101122.91;4993451;28;46635;-90
2022/06/18 10:58:59;;;;;;;;;7.67;6.00;;;;;41.66;16.50;101130.00;5003129;28;45644;-94
2022/06/18 11:01:36;;;;;;;;;7.33;7.33;;;;;41.75;16.95;101128.41;5005296;28;45443;-95
2022/06/18 11:04:16;;;;;;;;;8.67;8.67;;;;;41.51;16.65;101078.31;5009950;28;45527;-93
2022/06/18 11:06:48;;;;;;;;;11.00;10.00;;;;;41.35;16.99;101070.88;4982241;28;47663;-93
2022/06/18 11:09:29;;;;;;;;;7.00;7.00;;;;;41.57;16.39;101112.84;4992996;28;45892;-96
2022/06/18 11:12:20;;;;;;;;;8.00;7.00;;;;;40.91;17.21;100998.28;5008431;28;48255;-96
2022/06/18 11:14:51;;;;;;;;;10.33;8.00;;;;;41.59;16.71;101102.25;4982450;28;45578;-96
2022/06/18 11:17:43;;;;;;;;;8.00;7.33;;;;;41.65;16.82;101100.31;4999337;28;46332;-91
2022/06/18 11:20:30;;;;;;;;;5.33;5.33;;;;;41.64;16.68;101093.88;5003199;28;45390;-91
2022/06/18 11:23:04;;;;;;;;;6.00;6.00;;;;;41.63;16.95;101092.19;4987302;28;45567;-91
2022/06/18 11:25:49;;;;;;;;;8.00;7.67;;;;;41.41;16.70;101057.81;5003156;28;45511;-96
2022/06/18 11:28:20;;;;;;;;;11.33;7.33;;;;;41.60;16.88;101080.69;5008196;28;46256;-93
2022/06/18 11:30:49;;;;;;;;;9.00;7.00;;;;;41.46;16.25;101074.63;5012468;28;45461;-89
2022/06/18 11:33:19;;;;;;;;;10.00;8.00;;;;;41.37;16.45;101068.69;4998638;28;45334;-94
2022/06/18 11:35:47;;;;;;;;;11.00;8.00;;;;;40.97;16.42;101021.53;5001862;28;45546;-86
2022/06/18 11:38:25;;;;;;;;;7.67;7.67;;;;;40.94;16.72;101014.50;5005894;28;46187;-86
2022/06/18 11:40:53;;;;;;;;;7.67;7.67;;;;;41.13;16.80;101066.19;4996779;28;45428;-86
2022/06/18 11:43:35;;;;;;;;;8.00;7.00;;;;;40.91;16.39;101038.25;5006159;28;45402;-83
2022/06/18 11:46:23;;;;;;;;;7.67;6.67;;;;;40.99;16.51;101056.50;4994478;28;45506;-83
2022/06/18 11:49:15;;;;;;;;;8.67;7.00;;;;;40.84;16.60;101045.16;5010258;28;45612;-82
2022/06/18 11:52:04;;;;;;;;;11.33;9.33;;;;;40.72;16.27;101039.72;5006813;28;45444;-82
2022/06/18 11:55:13;;;;;;;;;8.33;7.00;;;;;40.59;16.96;101037.28;5006328;28;45386;-85
2022/06/18 11:57:44;;;;;;;;;8.00;7.00;;;;;40.41;16.27;101032.84;5001324;28;45799;-82
2022/06/18 12:03:41;;;;;;;;;10.00;7.33;;;;;39.91;16.03;100978.78;4993537;28;45678;-83
2022/06/18 12:06:20;;;;;;;;;11.67;7.00;;;;;40.00;16.84;101013.56;5005653;28;45525;-84
2022/06/18 12:08:47;;;;;;;;;8.00;7.67;;;;;39.86;17.07;101007.47;5149248;22;46937;-83
2022/06/18 12:11:31;;;;;;;;;8.67;8.67;;;;;39.80;17.22;101016.00;4994918;28;46467;-83
2022/06/18 12:14:08;;;;;;;;;8.00;8.00;;;;;39.58;17.42;100974.91;5017467;28;45575;-85
2022/06/18 12:16:54;;;;;;;;;6.67;5.33;;;;;39.26;17.50;100928.06;5013316;28;45471;-85
2022/06/18 12:23:12;;;;;;;;;8.00;8.00;;;;;39.64;17.92;100999.03;4983591;28;46048;-86
2022/06/18 12:25:45;;;;;;;;;9.33;6.00;;;;;39.41;17.78;100958.19;5012663;28;45493;-86
2022/06/18 12:28:57;;;;;;;;;7.00;7.00;;;;;39.53;17.38;100980.44;5020756;28;45430;-83
2022/06/18 12:34:34;;;;;;;;;7.00;6.67;;;;;38.75;18.29;100884.50;5855872;22;47054;-85
2022/06/18 13:19:47;;;;;;;;;7.67;7.67;;;;;37.98;20.55;100800.28;5155775;22;46935;-93
2022/06/18 13:28:35;;;;;;;;;7.00;7.00;;;;;38.18;20.78;100833.25;5021775;28;45661;-95